createdAt,value
2018-07-04T00:00:16.430Z,1018.17
2018-07-04T00:01:43.876Z,1018.20
2018-07-04T00:03:11.454Z,1018.20
2018-07-04T00:04:38.765Z,1018.22
2018-07-04T00:06:06.453Z,1018.20
2018-07-04T00:07:33.310Z,1018.21
2018-07-04T00:09:00.693Z,1018.21
2018-07-04T00:10:28.251Z,1018.19
2018-07-04T00:11:55.498Z,1018.18
2018-07-04T00:13:22.974Z,1018.21
2018-07-04T00:14:50.343Z,1018.22
2018-07-04T00:16:17.828Z,1018.25
2018-07-04T00:17:44.996Z,1018.25
2018-07-04T00:19:12.205Z,1018.23
2018-07-04T00:20:39.624Z,1018.22
2018-07-04T00:22:06.854Z,1018.23
2018-07-04T00:23:34.408Z,1018.21
2018-07-04T00:25:01.497Z,1018.19
2018-07-04T00:26:28.992Z,1018.19
2018-07-04T00:27:56.134Z,1018.21
2018-07-04T00:29:23.356Z,1018.22
2018-07-04T00:30:50.740Z,1018.26
2018-07-04T00:32:18.271Z,1018.28
2018-07-04T00:33:45.624Z,1018.30
2018-07-04T00:35:12.923Z,1018.28
2018-07-04T00:36:40.244Z,1018.28
2018-07-04T00:38:07.571Z,1018.28
2018-07-04T00:39:34.874Z,1018.26
2018-07-04T00:41:02.289Z,1018.29
2018-07-04T00:42:29.656Z,1018.30
2018-07-04T00:43:56.854Z,1018.32
2018-07-04T00:45:24.063Z,1018.31
2018-07-04T00:46:51.676Z,1018.29
2018-07-04T00:48:19.099Z,1018.27
2018-07-04T00:49:46.430Z,1018.25
2018-07-04T00:51:13.812Z,1018.22
2018-07-04T00:52:40.883Z,1018.21
2018-07-04T00:54:08.372Z,1018.18
2018-07-04T00:55:35.574Z,1018.16
2018-07-04T00:57:03.104Z,1018.15
2018-07-04T00:58:30.458Z,1018.13
2018-07-04T00:59:58.070Z,1018.13
2018-07-04T01:01:25.237Z,1018.13
2018-07-04T01:02:52.712Z,1018.17
2018-07-04T01:04:20.285Z,1018.19
2018-07-04T01:05:47.658Z,1018.22
2018-07-04T01:07:17.919Z,1018.24
2018-07-04T01:08:42.479Z,1018.24
2018-07-04T01:10:09.685Z,1018.26
2018-07-04T01:11:37.004Z,1018.25
2018-07-04T01:13:04.563Z,1018.24
2018-07-04T01:14:31.893Z,1018.22
2018-07-04T01:15:58.969Z,1018.21
2018-07-04T01:17:26.245Z,1018.22
2018-07-04T01:18:53.835Z,1018.18
2018-07-04T01:20:21.026Z,1018.18
2018-07-04T01:21:48.502Z,1018.20
2018-07-04T01:23:15.861Z,1018.18
2018-07-04T01:24:43.334Z,1018.20
2018-07-04T01:26:10.524Z,1018.21
2018-07-04T01:27:37.677Z,1018.22
2018-07-04T01:29:05.263Z,1018.19
2018-07-04T01:30:32.519Z,1018.18
2018-07-04T01:31:59.886Z,1018.19
2018-07-04T01:33:27.313Z,1018.19
2018-07-04T01:34:54.801Z,1018.19
2018-07-04T01:36:21.982Z,1018.20
2018-07-04T01:37:49.145Z,1018.19
2018-07-04T01:39:16.673Z,1018.21
2018-07-04T01:40:43.963Z,1018.19
2018-07-04T01:42:11.325Z,1018.20
2018-07-04T01:43:38.706Z,1018.19
2018-07-04T01:45:06.054Z,1018.17
2018-07-04T01:46:33.418Z,1018.17
2018-07-04T01:48:00.938Z,1018.15
2018-07-04T01:49:28.241Z,1018.14
2018-07-04T01:50:55.820Z,1018.14
2018-07-04T01:52:23.000Z,1018.13
2018-07-04T01:53:50.434Z,1018.12
2018-07-04T01:55:17.782Z,1018.13
2018-07-04T01:56:45.038Z,1018.12
2018-07-04T01:58:12.093Z,1018.10
2018-07-04T01:59:39.435Z,1018.06
2018-07-04T02:01:06.589Z,1018.01
2018-07-04T02:02:33.878Z,1018.00
2018-07-04T02:04:01.098Z,1017.98
2018-07-04T02:05:28.487Z,1017.99
2018-07-04T02:06:56.049Z,1017.97
2018-07-04T02:08:23.563Z,1017.96
2018-07-04T02:09:50.979Z,1017.97
2018-07-04T02:11:18.270Z,1018.00
2018-07-04T02:12:45.473Z,1018.03
2018-07-04T02:14:12.591Z,1018.04
2018-07-04T02:15:39.931Z,1018.05
2018-07-04T02:17:07.459Z,1018.04
2018-07-04T02:18:34.810Z,1018.05
2018-07-04T02:20:02.197Z,1018.04
2018-07-04T02:21:29.492Z,1018.05
2018-07-04T02:22:56.844Z,1018.02
2018-07-04T02:24:24.244Z,1018.03
2018-07-04T02:25:51.884Z,1018.04
2018-07-04T02:27:19.089Z,1018.03
2018-07-04T02:28:46.202Z,1018.05
2018-07-04T02:30:13.577Z,1018.06
2018-07-04T02:31:40.960Z,1018.06
2018-07-04T02:33:08.195Z,1018.10
2018-07-04T02:34:35.355Z,1018.11
2018-07-04T02:36:02.829Z,1018.13
2018-07-04T02:37:30.374Z,1018.17
2018-07-04T02:38:57.615Z,1018.21
2018-07-04T02:40:24.883Z,1018.18
2018-07-04T02:41:52.043Z,1018.17
2018-07-04T02:43:19.595Z,1018.16
2018-07-04T02:44:46.711Z,1018.14
2018-07-04T02:46:13.954Z,1018.16
2018-07-04T02:47:41.502Z,1018.16
2018-07-04T02:49:08.712Z,1018.11
2018-07-04T02:50:35.869Z,1018.11
2018-07-04T02:52:03.122Z,1018.11
2018-07-04T02:53:30.392Z,1018.10
2018-07-04T02:54:57.519Z,1018.09
2018-07-04T02:56:25.004Z,1018.08
2018-07-04T02:57:52.279Z,1018.06
2018-07-04T02:59:16.632Z,1018.03
2018-07-04T03:00:47.062Z,1018.00
2018-07-04T03:02:14.366Z,1018.00
2018-07-04T03:03:41.876Z,1018.01
2018-07-04T03:05:08.929Z,1018.01
2018-07-04T03:06:36.504Z,1018.02
2018-07-04T03:08:03.616Z,1018.00
2018-07-04T03:09:31.072Z,1018.02
2018-07-04T03:10:58.721Z,1018.04
2018-07-04T03:12:26.091Z,1018.05
2018-07-04T03:13:53.324Z,1018.07
2018-07-04T03:15:20.873Z,1018.08
2018-07-04T03:16:48.051Z,1018.07
2018-07-04T03:18:15.392Z,1018.10
2018-07-04T03:19:42.728Z,1018.11
2018-07-04T03:21:10.141Z,1018.09
2018-07-04T03:22:37.610Z,1018.09
2018-07-04T03:24:04.887Z,1018.09
2018-07-04T03:25:32.251Z,1018.10
2018-07-04T03:26:59.664Z,1018.13
2018-07-04T03:28:27.066Z,1018.12
2018-07-04T03:29:54.683Z,1018.11
2018-07-04T03:31:21.969Z,1018.09
2018-07-04T03:32:49.415Z,1018.05
2018-07-04T03:34:16.914Z,1018.07
2018-07-04T03:35:44.397Z,1018.11
2018-07-04T03:37:11.760Z,1018.07
2018-07-04T03:38:39.104Z,1018.08
2018-07-04T03:40:06.216Z,1018.11
2018-07-04T03:41:33.678Z,1018.10
2018-07-04T03:43:01.269Z,1018.12
2018-07-04T03:44:28.603Z,1018.10
2018-07-04T03:45:55.976Z,1018.11
2018-07-04T03:47:23.407Z,1018.10
2018-07-04T03:48:50.537Z,1018.10
2018-07-04T03:50:17.962Z,1018.13
2018-07-04T03:51:45.390Z,1018.13
2018-07-04T03:53:12.796Z,1018.14
2018-07-04T03:54:40.255Z,1018.10
2018-07-04T03:56:07.675Z,1018.06
2018-07-04T03:57:35.013Z,1018.02
2018-07-04T03:59:02.524Z,1017.95
2018-07-04T04:00:29.854Z,1017.94
2018-07-04T04:01:57.286Z,1017.91
2018-07-04T04:03:24.898Z,1017.90
2018-07-04T04:04:52.293Z,1017.89
2018-07-04T04:06:19.716Z,1017.91
2018-07-04T04:07:47.015Z,1017.90
2018-07-04T04:09:14.431Z,1017.91
2018-07-04T04:10:42.042Z,1017.91
2018-07-04T04:12:09.689Z,1017.88
2018-07-04T04:13:37.056Z,1017.88
2018-07-04T04:15:04.203Z,1017.92
2018-07-04T04:16:31.607Z,1017.91
2018-07-04T04:17:58.888Z,1017.96
2018-07-04T04:19:26.490Z,1017.96
2018-07-04T04:20:53.799Z,1017.95
2018-07-04T04:22:21.383Z,1018.00
2018-07-04T04:23:48.906Z,1018.00
2018-07-04T04:25:16.341Z,1018.01
2018-07-04T04:26:43.575Z,1018.01
2018-07-04T04:28:11.161Z,1018.01
2018-07-04T04:29:38.549Z,1018.01
2018-07-04T04:31:06.103Z,1018.02
2018-07-04T04:32:33.593Z,1018.01
2018-07-04T04:34:01.513Z,1018.00
2018-07-04T04:35:29.265Z,1018.00
2018-07-04T04:36:56.593Z,1017.99
2018-07-04T04:38:23.932Z,1017.99
2018-07-04T04:39:51.182Z,1017.99
2018-07-04T04:41:18.600Z,1018.00
2018-07-04T04:42:46.100Z,1018.01
2018-07-04T04:44:13.339Z,1018.04
2018-07-04T04:45:40.765Z,1018.04
2018-07-04T04:47:07.996Z,1018.04
2018-07-04T04:48:35.329Z,1018.03
2018-07-04T04:50:02.874Z,1018.02
2018-07-04T04:51:30.240Z,1018.02
2018-07-04T04:52:57.608Z,1018.04
2018-07-04T04:54:25.078Z,1018.04
2018-07-04T04:55:52.402Z,1018.04
2018-07-04T04:57:19.771Z,1018.02
2018-07-04T04:58:47.050Z,1018.00
2018-07-04T05:00:14.507Z,1018.00
2018-07-04T05:01:41.887Z,1017.99
2018-07-04T05:03:09.533Z,1017.96
2018-07-04T05:04:36.972Z,1017.98
2018-07-04T05:06:04.288Z,1017.99
2018-07-04T05:07:31.755Z,1017.99
2018-07-04T05:08:59.288Z,1018.03
2018-07-04T05:10:26.447Z,1018.05
2018-07-04T05:11:53.822Z,1018.08
2018-07-04T05:13:20.958Z,1018.06
2018-07-04T05:14:48.588Z,1018.06
2018-07-04T05:16:15.907Z,1018.04
2018-07-04T05:17:43.191Z,1018.05
2018-07-04T05:19:10.720Z,1018.04
2018-07-04T05:20:38.170Z,1018.04
2018-07-04T05:22:05.426Z,1018.04
2018-07-04T05:23:32.683Z,1018.06
2018-07-04T05:24:59.963Z,1018.06
2018-07-04T05:26:27.370Z,1018.07
2018-07-04T05:27:54.892Z,1018.09
2018-07-04T05:29:22.243Z,1018.11
2018-07-04T05:30:49.685Z,1018.08
2018-07-04T05:32:16.756Z,1018.10
2018-07-04T05:33:43.881Z,1018.05
2018-07-04T05:35:11.436Z,1018.04
2018-07-04T05:36:38.749Z,1018.06
2018-07-04T05:38:06.257Z,1018.06
2018-07-04T05:39:33.425Z,1018.03
2018-07-04T05:41:00.583Z,1018.01
2018-07-04T05:42:27.760Z,1018.03
2018-07-04T05:43:55.299Z,1017.99
2018-07-04T05:45:22.787Z,1017.92
2018-07-04T05:46:50.142Z,1017.86
2018-07-04T05:48:17.916Z,1017.82
2018-07-04T05:49:45.106Z,1017.82
2018-07-04T05:51:12.615Z,1017.76
2018-07-04T05:52:40.275Z,1017.75
2018-07-04T05:54:07.607Z,1017.68
2018-07-04T05:55:35.317Z,1017.70
2018-07-04T05:57:02.710Z,1017.64
2018-07-04T05:58:29.941Z,1017.61
2018-07-04T05:59:57.517Z,1017.60
2018-07-04T06:01:25.179Z,1017.58
2018-07-04T06:02:52.590Z,1017.61
2018-07-04T06:04:20.077Z,1017.63
2018-07-04T06:05:47.746Z,1017.64
2018-07-04T06:07:14.965Z,1017.62
2018-07-04T06:08:42.506Z,1017.62
2018-07-04T06:10:09.906Z,1017.60
2018-07-04T06:11:37.377Z,1017.59
2018-07-04T06:13:04.775Z,1017.62
2018-07-04T06:14:32.441Z,1017.64
2018-07-04T06:15:59.849Z,1017.66
2018-07-04T06:17:27.532Z,1017.72
2018-07-04T06:18:54.822Z,1017.73
2018-07-04T06:20:22.170Z,1017.72
2018-07-04T06:21:49.598Z,1017.71
2018-07-04T06:23:17.048Z,1017.71
2018-07-04T06:24:44.018Z,1017.70
2018-07-04T06:26:11.506Z,1017.72
2018-07-04T06:27:39.221Z,1017.73
2018-07-04T06:29:06.351Z,1017.70
2018-07-04T06:30:33.904Z,1017.71
2018-07-04T06:32:01.473Z,1017.68
2018-07-04T06:33:29.027Z,1017.69
2018-07-04T06:34:56.636Z,1017.71
2018-07-04T06:36:24.355Z,1017.71
2018-07-04T06:37:51.980Z,1017.71
2018-07-04T06:39:19.684Z,1017.68
2018-07-04T06:40:47.995Z,1017.65
2018-07-04T06:42:14.981Z,1017.66
2018-07-04T06:43:42.665Z,1017.64
2018-07-04T06:45:10.145Z,1017.62
2018-07-04T06:46:38.001Z,1017.59
2018-07-04T06:48:05.177Z,1017.56
2018-07-04T06:49:32.571Z,1017.50
2018-07-04T06:51:00.237Z,1017.48
2018-07-04T06:52:27.695Z,1017.46
2018-07-04T06:53:55.467Z,1017.48
2018-07-04T06:55:22.496Z,1017.45
2018-07-04T06:56:49.984Z,1017.44
2018-07-04T06:58:17.353Z,1017.37
2018-07-04T06:59:44.829Z,1017.34
2018-07-04T07:01:12.670Z,1017.41
2018-07-04T07:02:40.068Z,1017.42
2018-07-04T07:04:07.138Z,1017.41
2018-07-04T07:05:34.883Z,1017.44
2018-07-04T07:07:02.285Z,1017.46
2018-07-04T07:08:29.642Z,1017.43
2018-07-04T07:09:57.116Z,1017.43
2018-07-04T07:11:24.687Z,1017.45
2018-07-04T07:12:52.190Z,1017.48
2018-07-04T07:14:19.526Z,1017.47
2018-07-04T07:15:47.280Z,1017.46
2018-07-04T07:17:14.737Z,1017.47
2018-07-04T07:18:41.768Z,1017.47
2018-07-04T07:20:09.330Z,1017.47
2018-07-04T07:21:36.971Z,1017.46
2018-07-04T07:23:04.156Z,1017.45
2018-07-04T07:24:31.589Z,1017.45
2018-07-04T07:25:59.265Z,1017.43
2018-07-04T07:27:26.507Z,1017.45
2018-07-04T07:28:54.181Z,1017.42
2018-07-04T07:30:21.777Z,1017.42
2018-07-04T07:31:49.062Z,1017.40
2018-07-04T07:33:16.600Z,1017.40
2018-07-04T07:34:43.817Z,1017.40
2018-07-04T07:36:11.430Z,1017.39
2018-07-04T07:37:39.010Z,1017.37
2018-07-04T07:39:06.533Z,1017.35
2018-07-04T07:40:34.041Z,1017.35
2018-07-04T07:42:01.157Z,1017.31
2018-07-04T07:43:28.585Z,1017.31
2018-07-04T07:44:56.017Z,1017.34
2018-07-04T07:46:23.450Z,1017.30
2018-07-04T07:47:50.897Z,1017.29
2018-07-04T07:49:18.491Z,1017.26
2018-07-04T07:50:45.408Z,1017.26
2018-07-04T07:52:13.073Z,1017.28
2018-07-04T07:53:40.718Z,1017.30
2018-07-04T07:55:08.080Z,1017.30
2018-07-04T07:56:35.576Z,1017.29
2018-07-04T07:58:02.809Z,1017.28
2018-07-04T07:59:30.297Z,1017.27
2018-07-04T08:00:57.908Z,1017.28
2018-07-04T08:02:25.174Z,1017.29
2018-07-04T08:03:52.741Z,1017.27
2018-07-04T08:05:20.021Z,1017.25
2018-07-04T08:06:47.593Z,1017.22
2018-07-04T08:08:14.976Z,1017.27
2018-07-04T08:09:42.342Z,1017.26
2018-07-04T08:11:09.723Z,1017.22
2018-07-04T08:12:36.810Z,1017.20
2018-07-04T08:14:04.460Z,1017.20
2018-07-04T08:15:32.006Z,1017.18
2018-07-04T08:16:59.510Z,1017.14
2018-07-04T08:18:27.102Z,1017.12
2018-07-04T08:19:54.042Z,1017.14
2018-07-04T08:21:21.627Z,1017.09
2018-07-04T08:22:49.056Z,1017.06
2018-07-04T08:24:16.636Z,1017.07
2018-07-04T08:25:44.183Z,1017.06
2018-07-04T08:27:11.682Z,1017.07
2018-07-04T08:28:39.486Z,1017.02
2018-07-04T08:30:07.216Z,1017.03
2018-07-04T08:31:33.963Z,1017.04
2018-07-04T08:33:01.628Z,1017.03
2018-07-04T08:34:29.349Z,1017.03
2018-07-04T08:35:56.958Z,1017.03
2018-07-04T08:37:24.685Z,1017.05
2018-07-04T08:38:52.174Z,1017.03
2018-07-04T08:40:19.794Z,1017.00
2018-07-04T08:41:47.434Z,1017.01
2018-07-04T08:43:14.904Z,1017.01
2018-07-04T08:44:42.579Z,1016.99
2018-07-04T08:46:09.933Z,1016.97
2018-07-04T08:47:37.286Z,1016.96
2018-07-04T08:49:05.070Z,1016.95
2018-07-04T08:50:32.663Z,1016.91
2018-07-04T08:52:00.321Z,1016.91
2018-07-04T08:53:27.649Z,1016.94
2018-07-04T08:54:55.507Z,1016.91
2018-07-04T08:56:22.898Z,1016.93
2018-07-04T08:57:50.451Z,1016.94
2018-07-04T08:59:18.056Z,1016.89
2018-07-04T09:00:45.615Z,1016.87
2018-07-04T09:02:12.844Z,1016.88
2018-07-04T09:03:40.259Z,1016.86
2018-07-04T09:05:07.582Z,1016.84
2018-07-04T09:06:35.185Z,1016.83
2018-07-04T09:08:02.599Z,1016.82
2018-07-04T09:09:30.246Z,1016.84
2018-07-04T09:10:57.964Z,1016.79
2018-07-04T09:12:25.555Z,1016.78
2018-07-04T09:13:52.756Z,1016.76
2018-07-04T09:15:20.274Z,1016.75
2018-07-04T09:16:47.797Z,1016.75
2018-07-04T09:18:15.235Z,1016.77
2018-07-04T09:19:42.669Z,1016.76
2018-07-04T09:21:10.105Z,1016.79
2018-07-04T09:22:37.585Z,1016.80
2018-07-04T09:24:05.103Z,1016.84
2018-07-04T09:25:32.352Z,1016.83
2018-07-04T09:26:59.673Z,1016.83
2018-07-04T09:28:26.658Z,1016.81
2018-07-04T09:29:54.148Z,1016.80
2018-07-04T09:31:21.520Z,1016.78
2018-07-04T09:32:49.160Z,1016.79
2018-07-04T09:34:16.722Z,1016.79
2018-07-04T09:35:43.940Z,1016.79
2018-07-04T09:37:11.494Z,1016.77
2018-07-04T09:38:39.018Z,1016.80
2018-07-04T09:40:06.733Z,1016.81
2018-07-04T09:41:34.411Z,1016.74
2018-07-04T09:43:01.958Z,1016.73
2018-07-04T09:44:29.676Z,1016.73
2018-07-04T09:45:57.129Z,1016.75
2018-07-04T09:47:24.824Z,1016.79
2018-07-04T09:48:52.291Z,1016.82
2018-07-04T09:50:19.797Z,1016.83
2018-07-04T09:51:47.287Z,1016.81
2018-07-04T09:53:14.821Z,1016.77
2018-07-04T09:54:42.139Z,1016.75
2018-07-04T09:56:09.764Z,1016.73
2018-07-04T09:57:37.033Z,1016.74
2018-07-04T09:59:04.758Z,1016.70
2018-07-04T10:00:32.136Z,1016.69
2018-07-04T10:01:59.711Z,1016.68
2018-07-04T10:03:27.154Z,1016.62
2018-07-04T10:04:54.316Z,1016.68
2018-07-04T10:06:21.889Z,1016.71
2018-07-04T10:07:49.590Z,1016.65
2018-07-04T10:09:17.144Z,1016.66
2018-07-04T10:10:44.649Z,1016.67
2018-07-04T10:12:12.163Z,1016.62
2018-07-04T10:13:39.617Z,1016.63
2018-07-04T10:15:07.401Z,1016.61
2018-07-04T10:16:34.462Z,1016.62
2018-07-04T10:18:02.283Z,1016.64
2018-07-04T10:19:29.753Z,1016.65
2018-07-04T10:20:56.900Z,1016.65
2018-07-04T10:22:24.474Z,1016.59
2018-07-04T10:23:51.846Z,1016.53
2018-07-04T10:25:19.321Z,1016.48
2018-07-04T10:26:46.726Z,1016.46
2018-07-04T10:28:14.192Z,1016.47
2018-07-04T10:29:41.739Z,1016.49
2018-07-04T10:31:09.059Z,1016.48
2018-07-04T10:32:36.485Z,1016.46
2018-07-04T10:34:04.087Z,1016.43
2018-07-04T10:35:31.868Z,1016.45
2018-07-04T10:36:59.377Z,1016.44
2018-07-04T10:38:27.001Z,1016.41
2018-07-04T10:39:54.387Z,1016.45
2018-07-04T10:41:22.002Z,1016.44
2018-07-04T10:42:49.508Z,1016.38
2018-07-04T10:44:17.135Z,1016.36
2018-07-04T10:45:44.777Z,1016.36
2018-07-04T10:47:12.510Z,1016.37
2018-07-04T10:48:40.242Z,1016.39
2018-07-04T10:50:07.603Z,1016.37
2018-07-04T10:51:34.888Z,1016.36
2018-07-04T10:53:02.498Z,1016.33
2018-07-04T10:54:30.159Z,1016.30
2018-07-04T10:55:57.731Z,1016.30
2018-07-04T10:57:25.214Z,1016.29
2018-07-04T10:58:52.356Z,1016.24
2018-07-04T11:00:19.732Z,1016.26
2018-07-04T11:01:47.169Z,1016.26
2018-07-04T11:03:14.804Z,1016.25
2018-07-04T11:04:42.165Z,1016.16
2018-07-04T11:06:09.781Z,1016.14
2018-07-04T11:07:37.528Z,1016.16
2018-07-04T11:09:05.193Z,1016.14
2018-07-04T11:10:32.681Z,1016.12
2018-07-04T11:12:00.357Z,1016.11
2018-07-04T11:13:28.021Z,1016.06
2018-07-04T11:14:55.736Z,1016.06
2018-07-04T11:16:23.101Z,1016.06
2018-07-04T11:17:50.656Z,1016.04
2018-07-04T11:19:18.442Z,1016.07
2018-07-04T11:20:45.613Z,1016.06
2018-07-04T11:22:13.079Z,1016.01
2018-07-04T11:23:40.926Z,1016.03
2018-07-04T11:25:08.179Z,1016.01
2018-07-04T11:26:36.740Z,1015.94
2018-07-04T11:28:03.294Z,1015.97
2018-07-04T11:29:30.937Z,1015.97
2018-07-04T11:30:58.294Z,1015.98
2018-07-04T11:32:25.972Z,1015.90
2018-07-04T11:33:53.574Z,1015.87
2018-07-04T11:35:21.083Z,1015.87
2018-07-04T11:36:48.780Z,1015.82
2018-07-04T11:38:16.346Z,1015.80
2018-07-04T11:39:43.743Z,1015.81
2018-07-04T11:41:11.529Z,1015.78
2018-07-04T11:42:39.240Z,1015.80
2018-07-04T11:44:03.324Z,1015.75
2018-07-04T11:45:33.959Z,1015.75
2018-07-04T11:47:01.614Z,1015.71
2018-07-04T11:48:29.160Z,1015.63
2018-07-04T11:49:56.862Z,1015.65
2018-07-04T11:51:24.453Z,1015.65
2018-07-04T11:52:52.243Z,1015.62
2018-07-04T11:54:19.887Z,1015.63
2018-07-04T11:55:47.542Z,1015.63
2018-07-04T11:57:15.096Z,1015.63
2018-07-04T11:58:42.808Z,1015.59
2018-07-04T12:00:10.204Z,1015.58
2018-07-04T12:01:38.052Z,1015.59
2018-07-04T12:03:05.597Z,1015.54
2018-07-04T12:04:33.161Z,1015.54
2018-07-04T12:06:00.624Z,1015.56
2018-07-04T12:07:28.067Z,1015.54
2018-07-04T12:08:55.600Z,1015.51
2018-07-04T12:10:23.480Z,1015.53
2018-07-04T12:11:50.875Z,1015.53
2018-07-04T12:13:18.354Z,1015.49
2018-07-04T12:14:45.978Z,1015.50
2018-07-04T12:16:13.632Z,1015.51
2018-07-04T12:17:41.316Z,1015.50
2018-07-04T12:19:09.039Z,1015.51
2018-07-04T12:20:36.414Z,1015.51
2018-07-04T12:22:04.126Z,1015.46
2018-07-04T12:23:31.555Z,1015.46
2018-07-04T12:24:59.138Z,1015.45
2018-07-04T12:26:26.738Z,1015.46
2018-07-04T12:27:54.026Z,1015.45
2018-07-04T12:29:21.560Z,1015.47
2018-07-04T12:30:49.508Z,1015.41
2018-07-04T12:32:24.931Z,1015.43
2018-07-04T12:33:44.317Z,1015.43
2018-07-04T12:35:12.129Z,1015.44
2018-07-04T12:36:39.847Z,1015.41
2018-07-04T12:38:07.608Z,1015.39
2018-07-04T12:39:35.312Z,1015.39
2018-07-04T12:41:03.025Z,1015.37
2018-07-04T12:42:30.758Z,1015.38
2018-07-04T12:43:58.335Z,1015.42
2018-07-04T12:45:25.907Z,1015.42
2018-07-04T12:46:53.361Z,1015.44
2018-07-04T12:48:21.037Z,1015.45
2018-07-04T12:49:48.639Z,1015.46
2018-07-04T12:51:16.258Z,1015.42
2018-07-04T12:52:43.906Z,1015.43
2018-07-04T12:54:11.672Z,1015.46
2018-07-04T12:55:39.026Z,1015.42
2018-07-04T12:57:06.807Z,1015.43
2018-07-04T12:58:34.455Z,1015.50
2018-07-04T13:00:02.105Z,1015.49
2018-07-04T13:01:29.492Z,1015.50
2018-07-04T13:02:57.261Z,1015.48
2018-07-04T13:04:24.840Z,1015.46
2018-07-04T13:05:52.512Z,1015.44
2018-07-04T13:07:19.785Z,1015.49
2018-07-04T13:08:47.448Z,1015.47
2018-07-04T13:10:15.108Z,1015.49
2018-07-04T13:11:42.837Z,1015.47
2018-07-04T13:13:10.370Z,1015.48
2018-07-04T13:14:38.275Z,1015.43
2018-07-04T13:16:05.861Z,1015.42
2018-07-04T13:17:33.411Z,1015.42
2018-07-04T13:19:01.124Z,1015.46
2018-07-04T13:20:28.655Z,1015.42
2018-07-04T13:21:56.517Z,1015.40
2018-07-04T13:23:24.289Z,1015.44
2018-07-04T13:24:51.626Z,1015.38
2018-07-04T13:26:19.332Z,1015.35
2018-07-04T13:27:46.894Z,1015.37
2018-07-04T13:29:14.306Z,1015.38
2018-07-04T13:30:41.816Z,1015.47
2018-07-04T13:32:09.678Z,1015.34
2018-07-04T13:33:37.117Z,1015.35
2018-07-04T13:35:04.895Z,1015.38
2018-07-04T13:36:32.667Z,1015.37
2018-07-04T13:38:00.450Z,1015.30
2018-07-04T13:39:28.127Z,1015.32
2018-07-04T13:40:55.897Z,1015.29
2018-07-04T13:42:23.393Z,1015.28
2018-07-04T13:43:50.949Z,1015.27
2018-07-04T13:45:18.842Z,1015.25
2018-07-04T13:46:46.446Z,1015.31
2018-07-04T13:48:13.967Z,1015.33
2018-07-04T13:49:41.571Z,1015.30
2018-07-04T13:51:09.050Z,1015.30
2018-07-04T13:52:36.840Z,1015.28
2018-07-04T13:54:04.415Z,1015.21
2018-07-04T13:55:32.196Z,1015.23
2018-07-04T13:56:59.905Z,1015.25
2018-07-04T13:58:27.493Z,1015.21
2018-07-04T13:59:55.115Z,1015.18
2018-07-04T14:01:22.806Z,1015.22
2018-07-04T14:02:50.536Z,1015.24
2018-07-04T14:04:17.915Z,1015.26
2018-07-04T14:05:45.350Z,1015.22
2018-07-04T14:07:12.984Z,1015.20
2018-07-04T14:08:40.568Z,1015.22
2018-07-04T14:10:08.325Z,1015.19
2018-07-04T14:11:35.999Z,1015.19
2018-07-04T14:13:03.639Z,1015.16
2018-07-04T14:14:31.414Z,1015.17
2018-07-04T14:15:59.033Z,1015.09
2018-07-04T14:17:26.452Z,1015.05
2018-07-04T14:18:54.055Z,1015.14
2018-07-04T14:20:21.650Z,1015.14
2018-07-04T14:21:49.196Z,1015.13
2018-07-04T14:23:16.784Z,1015.09
2018-07-04T14:24:44.283Z,1015.06
2018-07-04T14:26:11.897Z,1015.09
2018-07-04T14:27:39.684Z,1015.11
2018-07-04T14:29:07.261Z,1015.10
2018-07-04T14:30:34.655Z,1015.09
2018-07-04T14:32:02.416Z,1015.11
2018-07-04T14:33:30.064Z,1015.10
2018-07-04T14:34:57.637Z,1015.08
2018-07-04T14:36:25.258Z,1015.07
2018-07-04T14:37:53.011Z,1015.07
2018-07-04T14:39:20.655Z,1015.07
2018-07-04T14:40:48.454Z,1015.04
2018-07-04T14:42:15.900Z,1015.06
2018-07-04T14:43:43.589Z,1015.00
2018-07-04T14:45:11.166Z,1015.00
2018-07-04T14:46:38.896Z,1015.00
2018-07-04T14:48:06.607Z,1014.95
2018-07-04T14:49:34.311Z,1014.92
2018-07-04T14:51:01.864Z,1014.92
2018-07-04T14:52:29.821Z,1014.93
2018-07-04T14:53:56.960Z,1014.92
2018-07-04T14:55:24.565Z,1014.97
2018-07-04T14:56:52.182Z,1014.95
2018-07-04T14:58:19.433Z,1014.95
2018-07-04T14:59:47.116Z,1014.96
2018-07-04T15:01:14.506Z,1014.97
2018-07-04T15:41:25.993Z,1014.94
2018-07-04T15:42:52.198Z,1014.92
2018-07-04T15:44:19.952Z,1014.91
2018-07-04T15:45:47.407Z,1014.94
2018-07-04T15:47:15.134Z,1014.96
2018-07-04T15:48:42.666Z,1014.98
2018-07-04T15:50:10.214Z,1015.00
2018-07-04T15:51:37.884Z,1014.99
2018-07-04T15:53:05.442Z,1014.95
2018-07-04T15:54:32.785Z,1014.98
2018-07-04T15:56:00.255Z,1014.99
2018-07-04T15:57:27.702Z,1014.98
2018-07-04T15:58:55.422Z,1014.95
2018-07-04T16:00:22.951Z,1014.93
2018-07-04T16:01:50.325Z,1014.94
2018-07-04T16:03:18.188Z,1014.93
2018-07-04T16:04:45.739Z,1014.92
2018-07-04T16:06:13.305Z,1014.92
2018-07-04T16:07:40.984Z,1014.94
2018-07-04T16:09:08.773Z,1014.93
2018-07-04T16:10:36.201Z,1014.92
2018-07-04T16:12:03.585Z,1014.91
2018-07-04T16:13:31.077Z,1014.92
2018-07-04T16:14:58.703Z,1014.90
2018-07-04T16:16:26.242Z,1014.88
2018-07-04T16:17:53.925Z,1014.87
2018-07-04T16:19:21.515Z,1014.86
2018-07-04T16:20:49.022Z,1014.83
2018-07-04T16:22:16.571Z,1014.83
2018-07-04T16:23:44.078Z,1014.81
2018-07-04T16:25:11.669Z,1014.80
2018-07-04T16:26:38.870Z,1014.79
2018-07-04T16:28:06.628Z,1014.82
2018-07-04T16:29:34.089Z,1014.79
2018-07-04T16:31:01.582Z,1014.77
2018-07-04T16:32:29.100Z,1014.79
2018-07-04T16:33:56.907Z,1014.78
2018-07-04T16:35:24.620Z,1014.79
2018-07-04T16:36:52.220Z,1014.85
2018-07-04T16:38:19.807Z,1014.87
2018-07-04T16:39:47.384Z,1014.89
2018-07-04T16:41:15.061Z,1014.87
2018-07-04T16:42:42.731Z,1014.86
2018-07-04T16:44:10.263Z,1014.88
2018-07-04T16:45:37.702Z,1014.86
2018-07-04T16:47:05.286Z,1014.86
2018-07-04T16:48:32.647Z,1014.83
2018-07-04T16:50:00.203Z,1014.81
2018-07-04T16:51:27.574Z,1014.81
2018-07-04T16:52:55.103Z,1014.82
2018-07-04T16:54:22.694Z,1014.84
2018-07-04T16:55:50.350Z,1014.85
2018-07-04T16:57:17.868Z,1014.85
2018-07-04T16:58:45.287Z,1014.85
2018-07-04T17:00:12.847Z,1014.84
2018-07-04T17:01:40.312Z,1014.84
2018-07-04T17:03:07.774Z,1014.84
2018-07-04T17:04:35.092Z,1014.85
2018-07-04T17:06:02.785Z,1014.85
2018-07-04T17:07:30.225Z,1014.88
2018-07-04T17:08:58.039Z,1014.86
2018-07-04T17:10:25.562Z,1014.87
2018-07-04T17:11:53.210Z,1014.84
2018-07-04T17:13:20.799Z,1014.83
2018-07-04T17:14:48.375Z,1014.84
2018-07-04T17:16:15.815Z,1014.81
2018-07-04T17:17:43.382Z,1014.80
2018-07-04T17:19:10.804Z,1014.79
2018-07-04T17:20:38.642Z,1014.82
2018-07-04T17:22:06.117Z,1014.84
2018-07-04T17:23:33.847Z,1014.86
2018-07-04T17:25:01.280Z,1014.88
2018-07-04T17:26:29.142Z,1014.88
2018-07-04T17:27:56.774Z,1014.86
2018-07-04T17:29:24.347Z,1014.85
2018-07-04T17:30:52.019Z,1014.85
2018-07-04T17:32:19.692Z,1014.84
2018-07-04T17:33:47.220Z,1014.86
2018-07-04T17:35:14.802Z,1014.86
2018-07-04T17:36:42.447Z,1014.84
2018-07-04T17:38:09.723Z,1014.85
2018-07-04T17:39:37.424Z,1014.86
2018-07-04T17:41:04.856Z,1014.87
2018-07-04T17:42:32.473Z,1014.88
2018-07-04T17:43:59.899Z,1014.87
2018-07-04T17:45:27.350Z,1014.86
2018-07-04T17:46:55.048Z,1014.85
2018-07-04T17:48:22.753Z,1014.84
2018-07-04T17:49:50.307Z,1014.82
2018-07-04T17:51:17.763Z,1014.80
2018-07-04T17:52:45.224Z,1014.81
2018-07-04T17:54:12.700Z,1014.81
2018-07-04T17:55:40.208Z,1014.82
2018-07-04T17:57:07.723Z,1014.84
2018-07-04T17:58:35.122Z,1014.84
2018-07-04T18:00:02.737Z,1014.86
2018-07-04T18:01:30.122Z,1014.88
2018-07-04T18:02:57.696Z,1014.89
2018-07-04T18:04:25.426Z,1014.89
2018-07-04T18:05:52.935Z,1014.85
2018-07-04T18:07:20.512Z,1014.88
2018-07-04T18:08:48.035Z,1014.86
2018-07-04T18:10:15.514Z,1014.90
2018-07-04T18:11:43.100Z,1014.90
2018-07-04T18:13:10.733Z,1014.90
2018-07-04T18:14:38.331Z,1014.91
2018-07-04T18:16:05.915Z,1014.92